Suphan Buri, Thailand
Current Conditions -  °F | °C
As of 9:00 PM on Wednesday 26 Nov 2014 (Local Time) from VTBD Reporting Station
Scattered Clouds Scattered Clouds  
Wind Chill: 88°   Ceiling: Unl
Heat Index: 96°   Visibility: 6mi
Dew Point: 73°   Wind: 3mph
Humidity: 62%   Direction: 350°N
Pressure: 29.8"   Gusts: NA
Location:  14.47°N, 100.13°E
Report Text: VTBD 261400Z 35003KT 310V040 9999 FEW030 SCT300 31/23 Q1009 NOSIG
Loading
Personal Weather Stations






























Interactive Weather Map New forecast layout! Learn more

10-Day Weather Forecast

Advertisements
Track Severe Weather on mobile